sensor_id;sensor_type;location;lat;lon;timestamp;P1;durP1;ratioP1;P2;durP2;ratioP2
64063;SDS011;50314;50.618;10.642;2023-03-07T00:01:22;5.55;;;2.95;;
64063;SDS011;50314;50.618;10.642;2023-03-07T00:06:14;4.18;;;2.60;;
64063;SDS011;50314;50.618;10.642;2023-03-07T00:08:40;3.50;;;2.20;;
64063;SDS011;50314;50.618;10.642;2023-03-07T00:11:06;4.03;;;2.30;;
64063;SDS011;50314;50.618;10.642;2023-03-07T00:13:33;4.43;;;2.90;;
64063;SDS011;50314;50.618;10.642;2023-03-07T00:16:01;4.70;;;2.55;;
64063;SDS011;50314;50.618;10.642;2023-03-07T00:18:35;5.90;;;2.70;;
64063;SDS011;50314;50.618;10.642;2023-03-07T00:21:01;4.50;;;2.45;;
64063;SDS011;50314;50.618;10.642;2023-03-07T00:23:32;3.95;;;2.55;;
64063;SDS011;50314;50.618;10.642;2023-03-07T00:25:59;4.97;;;2.33;;
64063;SDS011;50314;50.618;10.642;2023-03-07T00:28:27;3.35;;;2.25;;
64063;SDS011;50314;50.618;10.642;2023-03-07T00:30:53;2.97;;;2.30;;
64063;SDS011;50314;50.618;10.642;2023-03-07T00:33:19;3.65;;;2.45;;
64063;SDS011;50314;50.618;10.642;2023-03-07T00:35:52;4.22;;;2.20;;
64063;SDS011;50314;50.618;10.642;2023-03-07T00:38:26;3.90;;;2.22;;
64063;SDS011;50314;50.618;10.642;2023-03-07T00:41:03;3.45;;;2.10;;
64063;SDS011;50314;50.618;10.642;2023-03-07T00:43:33;4.03;;;2.80;;
64063;SDS011;50314;50.618;10.642;2023-03-07T00:45:59;3.10;;;2.20;;
64063;SDS011;50314;50.618;10.642;2023-03-07T00:48:25;4.32;;;2.28;;
64063;SDS011;50314;50.618;10.642;2023-03-07T00:50:52;5.45;;;2.50;;
64063;SDS011;50314;50.618;10.642;2023-03-07T00:53:18;3.75;;;2.25;;
64063;SDS011;50314;50.618;10.642;2023-03-07T00:58:26;2.92;;;2.08;;
64063;SDS011;50314;50.618;10.642;2023-03-07T01:00:53;3.35;;;2.17;;
64063;SDS011;50314;50.618;10.642;2023-03-07T01:03:19;2.83;;;2.22;;
64063;SDS011;50314;50.618;10.642;2023-03-07T01:05:45;4.70;;;2.13;;
64063;SDS011;50314;50.618;10.642;2023-03-07T01:08:11;3.45;;;2.38;;
64063;SDS011;50314;50.618;10.642;2023-03-07T01:10:37;5.55;;;2.33;;
64063;SDS011;50314;50.618;10.642;2023-03-07T01:13:03;4.53;;;2.45;;
64063;SDS011;50314;50.618;10.642;2023-03-07T01:15:29;3.50;;;2.30;;
64063;SDS011;50314;50.618;10.642;2023-03-07T01:17:54;3.67;;;2.38;;
64063;SDS011;50314;50.618;10.642;2023-03-07T01:20:20;2.90;;;2.00;;
64063;SDS011;50314;50.618;10.642;2023-03-07T01:22:45;3.28;;;1.95;;
64063;SDS011;50314;50.618;10.642;2023-03-07T01:25:11;3.80;;;2.80;;
64063;SDS011;50314;50.618;10.642;2023-03-07T01:27:37;3.05;;;1.83;;
64063;SDS011;50314;50.618;10.642;2023-03-07T01:30:04;3.08;;;2.30;;
64063;SDS011;50314;50.618;10.642;2023-03-07T01:32:30;3.05;;;1.73;;
64063;SDS011;50314;50.618;10.642;2023-03-07T01:34:56;3.58;;;1.98;;
64063;SDS011;50314;50.618;10.642;2023-03-07T01:37:21;3.03;;;2.10;;
64063;SDS011;50314;50.618;10.642;2023-03-07T01:39:49;3.63;;;2.17;;
64063;SDS011;50314;50.618;10.642;2023-03-07T01:42:18;3.30;;;2.17;;
64063;SDS011;50314;50.618;10.642;2023-03-07T01:44:57;3.25;;;2.38;;
64063;SDS011;50314;50.618;10.642;2023-03-07T01:47:30;3.13;;;2.00;;
64063;SDS011;50314;50.618;10.642;2023-03-07T01:49:56;3.40;;;1.90;;
64063;SDS011;50314;50.618;10.642;2023-03-07T01:52:38;2.88;;;1.92;;
64063;SDS011;50314;50.618;10.642;2023-03-07T01:55:09;3.83;;;2.10;;
64063;SDS011;50314;50.618;10.642;2023-03-07T02:00:08;2.70;;;1.77;;
64063;SDS011;50314;50.618;10.642;2023-03-07T02:02:36;2.97;;;2.15;;
64063;SDS011;50314;50.618;10.642;2023-03-07T02:05:06;3.38;;;2.13;;
64063;SDS011;50314;50.618;10.642;2023-03-07T02:07:43;4.13;;;2.42;;
64063;SDS011;50314;50.618;10.642;2023-03-07T02:10:12;4.13;;;2.33;;
64063;SDS011;50314;50.618;10.642;2023-03-07T02:12:40;3.70;;;2.15;;
64063;SDS011;50314;50.618;10.642;2023-03-07T02:15:09;2.92;;;1.70;;
64063;SDS011;50314;50.618;10.642;2023-03-07T02:17:36;3.30;;;2.13;;
64063;SDS011;50314;50.618;10.642;2023-03-07T02:22:29;3.70;;;2.55;;
64063;SDS011;50314;50.618;10.642;2023-03-07T02:25:04;3.65;;;2.30;;
64063;SDS011;50314;50.618;10.642;2023-03-07T02:27:34;3.17;;;2.05;;
64063;SDS011;50314;50.618;10.642;2023-03-07T02:30:02;3.35;;;2.10;;
64063;SDS011;50314;50.618;10.642;2023-03-07T02:32:31;3.67;;;2.10;;
64063;SDS011;50314;50.618;10.642;2023-03-07T02:34:56;3.17;;;2.13;;
64063;SDS011;50314;50.618;10.642;2023-03-07T02:37:26;3.40;;;2.13;;
64063;SDS011;50314;50.618;10.642;2023-03-07T02:39:59;4.70;;;2.50;;
64063;SDS011;50314;50.618;10.642;2023-03-07T02:42:29;3.45;;;2.33;;
64063;SDS011;50314;50.618;10.642;2023-03-07T02:44:58;3.72;;;2.00;;
64063;SDS011;50314;50.618;10.642;2023-03-07T02:47:26;2.95;;;1.77;;
64063;SDS011;50314;50.618;10.642;2023-03-07T02:49:52;2.92;;;1.90;;
64063;SDS011;50314;50.618;10.642;2023-03-07T02:52:17;3.03;;;2.03;;
64063;SDS011;50314;50.618;10.642;2023-03-07T02:54:43;3.40;;;1.92;;
64063;SDS011;50314;50.618;10.642;2023-03-07T02:57:09;3.60;;;2.05;;
64063;SDS011;50314;50.618;10.642;2023-03-07T02:59:37;4.13;;;1.95;;
64063;SDS011;50314;50.618;10.642;2023-03-07T03:02:03;3.28;;;2.22;;
64063;SDS011;50314;50.618;10.642;2023-03-07T03:04:28;3.30;;;2.03;;
64063;SDS011;50314;50.618;10.642;2023-03-07T03:06:54;3.30;;;2.08;;
64063;SDS011;50314;50.618;10.642;2023-03-07T03:09:19;3.45;;;2.20;;
64063;SDS011;50314;50.618;10.642;2023-03-07T03:11:45;2.75;;;1.92;;
64063;SDS011;50314;50.618;10.642;2023-03-07T03:14:10;3.17;;;2.15;;
64063;SDS011;50314;50.618;10.642;2023-03-07T03:16:36;4.25;;;2.00;;
64063;SDS011;50314;50.618;10.642;2023-03-07T03:21:29;2.90;;;1.90;;
64063;SDS011;50314;50.618;10.642;2023-03-07T03:23:55;3.95;;;2.10;;
64063;SDS011;50314;50.618;10.642;2023-03-07T03:26:20;3.90;;;2.40;;
64063;SDS011;50314;50.618;10.642;2023-03-07T03:28:46;3.60;;;2.28;;
64063;SDS011;50314;50.618;10.642;2023-03-07T03:31:11;3.50;;;2.13;;
64063;SDS011;50314;50.618;10.642;2023-03-07T03:33:41;3.17;;;1.90;;
64063;SDS011;50314;50.618;10.642;2023-03-07T03:36:17;3.25;;;2.00;;
64063;SDS011;50314;50.618;10.642;2023-03-07T03:38:43;3.20;;;2.10;;
64063;SDS011;50314;50.618;10.642;2023-03-07T03:41:12;3.95;;;2.35;;
64063;SDS011;50314;50.618;10.642;2023-03-07T03:43:41;3.40;;;1.83;;
64063;SDS011;50314;50.618;10.642;2023-03-07T03:46:07;2.95;;;1.92;;
64063;SDS011;50314;50.618;10.642;2023-03-07T03:48:32;4.25;;;2.30;;
64063;SDS011;50314;50.618;10.642;2023-03-07T03:51:08;2.95;;;2.13;;
64063;SDS011;50314;50.618;10.642;2023-03-07T03:53:36;3.85;;;2.45;;
64063;SDS011;50314;50.618;10.642;2023-03-07T03:56:04;3.30;;;2.10;;
64063;SDS011;50314;50.618;10.642;2023-03-07T03:58:34;3.38;;;2.30;;
64063;SDS011;50314;50.618;10.642;2023-03-07T04:01:09;4.22;;;2.20;;
64063;SDS011;50314;50.618;10.642;2023-03-07T04:03:37;4.18;;;2.60;;
64063;SDS011;50314;50.618;10.642;2023-03-07T04:06:05;2.92;;;2.00;;
64063;SDS011;50314;50.618;10.642;2023-03-07T04:08:33;4.00;;;2.53;;
64063;SDS011;50314;50.618;10.642;2023-03-07T04:10:59;3.95;;;2.28;;
64063;SDS011;50314;50.618;10.642;2023-03-07T04:13:25;3.00;;;2.05;;
64063;SDS011;50314;50.618;10.642;2023-03-07T04:15:51;4.40;;;2.50;;
64063;SDS011;50314;50.618;10.642;2023-03-07T04:18:18;3.97;;;2.50;;
64063;SDS011;50314;50.618;10.642;2023-03-07T04:20:44;3.05;;;2.17;;
64063;SDS011;50314;50.618;10.642;2023-03-07T04:23:12;3.45;;;2.03;;
64063;SDS011;50314;50.618;10.642;2023-03-07T04:25:38;3.25;;;2.10;;
64063;SDS011;50314;50.618;10.642;2023-03-07T04:28:03;2.70;;;1.95;;
64063;SDS011;50314;50.618;10.642;2023-03-07T04:30:29;3.78;;;2.08;;
64063;SDS011;50314;50.618;10.642;2023-03-07T04:32:54;3.35;;;2.30;;
64063;SDS011;50314;50.618;10.642;2023-03-07T04:35:20;2.63;;;1.88;;
64063;SDS011;50314;50.618;10.642;2023-03-07T04:37:45;2.17;;;1.70;;
64063;SDS011;50314;50.618;10.642;2023-03-07T04:40:11;3.55;;;2.25;;
64063;SDS011;50314;50.618;10.642;2023-03-07T04:42:37;2.90;;;2.10;;
64063;SDS011;50314;50.618;10.642;2023-03-07T04:45:03;3.67;;;2.00;;
64063;SDS011;50314;50.618;10.642;2023-03-07T04:47:29;3.28;;;2.17;;
64063;SDS011;50314;50.618;10.642;2023-03-07T04:49:55;3.42;;;1.90;;
64063;SDS011;50314;50.618;10.642;2023-03-07T04:52:21;2.97;;;2.20;;
64063;SDS011;50314;50.618;10.642;2023-03-07T04:54:46;2.42;;;1.80;;
64063;SDS011;50314;50.618;10.642;2023-03-07T04:57:12;2.88;;;1.90;;
64063;SDS011;50314;50.618;10.642;2023-03-07T04:59:37;3.05;;;1.88;;
64063;SDS011;50314;50.618;10.642;2023-03-07T05:02:06;3.40;;;2.10;;
64063;SDS011;50314;50.618;10.642;2023-03-07T05:04:33;2.88;;;2.10;;
64063;SDS011;50314;50.618;10.642;2023-03-07T05:06:58;3.00;;;2.20;;
64063;SDS011;50314;50.618;10.642;2023-03-07T05:09:24;3.10;;;1.90;;
64063;SDS011;50314;50.618;10.642;2023-03-07T05:11:50;2.83;;;2.05;;
64063;SDS011;50314;50.618;10.642;2023-03-07T05:14:15;3.30;;;2.00;;
64063;SDS011;50314;50.618;10.642;2023-03-07T05:16:41;3.13;;;1.98;;
64063;SDS011;50314;50.618;10.642;2023-03-07T05:19:07;2.35;;;1.65;;
64063;SDS011;50314;50.618;10.642;2023-03-07T05:21:33;3.33;;;1.98;;
64063;SDS011;50314;50.618;10.642;2023-03-07T05:23:58;2.95;;;1.80;;
64063;SDS011;50314;50.618;10.642;2023-03-07T05:26:24;3.05;;;2.10;;
64063;SDS011;50314;50.618;10.642;2023-03-07T05:28:49;3.83;;;2.20;;
64063;SDS011;50314;50.618;10.642;2023-03-07T05:31:15;2.65;;;1.75;;
64063;SDS011;50314;50.618;10.642;2023-03-07T05:33:40;2.95;;;2.03;;
64063;SDS011;50314;50.618;10.642;2023-03-07T05:36:06;3.47;;;1.92;;
64063;SDS011;50314;50.618;10.642;2023-03-07T05:38:33;2.65;;;1.70;;
64063;SDS011;50314;50.618;10.642;2023-03-07T05:40:59;2.88;;;1.92;;
64063;SDS011;50314;50.618;10.642;2023-03-07T05:43:25;2.88;;;1.88;;
64063;SDS011;50314;50.618;10.642;2023-03-07T05:45:51;3.03;;;1.77;;
64063;SDS011;50314;50.618;10.642;2023-03-07T05:48:17;2.42;;;1.70;;
64063;SDS011;50314;50.618;10.642;2023-03-07T05:50:42;3.53;;;2.15;;
64063;SDS011;50314;50.618;10.642;2023-03-07T05:53:08;2.63;;;1.80;;
64063;SDS011;50314;50.618;10.642;2023-03-07T05:55:33;3.15;;;1.83;;
64063;SDS011;50314;50.618;10.642;2023-03-07T05:57:59;2.25;;;1.55;;
64063;SDS011;50314;50.618;10.642;2023-03-07T06:00:24;4.07;;;1.77;;
64063;SDS011;50314;50.618;10.642;2023-03-07T06:02:50;4.88;;;2.00;;
64063;SDS011;50314;50.618;10.642;2023-03-07T06:05:16;2.17;;;1.50;;
64063;SDS011;50314;50.618;10.642;2023-03-07T06:07:41;2.35;;;1.63;;
64063;SDS011;50314;50.618;10.642;2023-03-07T06:10:08;1.38;;;1.27;;
64063;SDS011;50314;50.618;10.642;2023-03-07T06:12:34;2.22;;;1.48;;
64063;SDS011;50314;50.618;10.642;2023-03-07T06:14:59;2.08;;;1.63;;
64063;SDS011;50314;50.618;10.642;2023-03-07T06:17:25;2.90;;;1.65;;
64063;SDS011;50314;50.618;10.642;2023-03-07T06:19:50;2.30;;;1.50;;
64063;SDS011;50314;50.618;10.642;2023-03-07T06:22:16;3.20;;;1.70;;
64063;SDS011;50314;50.618;10.642;2023-03-07T06:24:41;2.22;;;1.60;;
64063;SDS011;50314;50.618;10.642;2023-03-07T06:27:07;2.88;;;1.92;;
64063;SDS011;50314;50.618;10.642;2023-03-07T06:29:35;2.15;;;1.52;;
64063;SDS011;50314;50.618;10.642;2023-03-07T06:32:02;3.88;;;2.03;;
64063;SDS011;50314;50.618;10.642;2023-03-07T06:34:27;2.03;;;1.80;;
64063;SDS011;50314;50.618;10.642;2023-03-07T06:36:53;2.65;;;1.80;;
64063;SDS011;50314;50.618;10.642;2023-03-07T06:39:18;2.28;;;1.98;;
64063;SDS011;50314;50.618;10.642;2023-03-07T06:41:48;2.03;;;1.65;;
64063;SDS011;50314;50.618;10.642;2023-03-07T06:44:14;1.70;;;1.58;;
64063;SDS011;50314;50.618;10.642;2023-03-07T06:46:41;1.98;;;1.70;;
64063;SDS011;50314;50.618;10.642;2023-03-07T06:49:08;2.33;;;1.73;;
64063;SDS011;50314;50.618;10.642;2023-03-07T06:51:33;1.95;;;1.58;;
64063;SDS011;50314;50.618;10.642;2023-03-07T06:53:58;1.80;;;1.60;;
64063;SDS011;50314;50.618;10.642;2023-03-07T06:56:24;1.67;;;1.50;;
64063;SDS011;50314;50.618;10.642;2023-03-07T06:58:50;1.92;;;1.58;;
64063;SDS011;50314;50.618;10.642;2023-03-07T07:01:19;2.13;;;1.70;;
64063;SDS011;50314;50.618;10.642;2023-03-07T07:03:45;2.03;;;1.50;;
64063;SDS011;50314;50.618;10.642;2023-03-07T07:06:11;2.20;;;1.42;;
64063;SDS011;50314;50.618;10.642;2023-03-07T07:08:36;2.20;;;1.40;;
64063;SDS011;50314;50.618;10.642;2023-03-07T07:11:02;1.52;;;1.42;;
64063;SDS011;50314;50.618;10.642;2023-03-07T07:13:27;2.70;;;1.83;;
64063;SDS011;50314;50.618;10.642;2023-03-07T07:15:52;2.05;;;1.50;;
64063;SDS011;50314;50.618;10.642;2023-03-07T07:18:18;1.92;;;1.48;;
64063;SDS011;50314;50.618;10.642;2023-03-07T07:20:43;2.08;;;1.52;;
64063;SDS011;50314;50.618;10.642;2023-03-07T07:23:09;1.63;;;1.52;;
64063;SDS011;50314;50.618;10.642;2023-03-07T07:25:36;1.77;;;1.63;;
64063;SDS011;50314;50.618;10.642;2023-03-07T07:28:02;1.80;;;1.52;;
64063;SDS011;50314;50.618;10.642;2023-03-07T07:30:28;3.00;;;1.60;;
64063;SDS011;50314;50.618;10.642;2023-03-07T07:32:53;1.67;;;1.55;;
64063;SDS011;50314;50.618;10.642;2023-03-07T07:35:19;1.77;;;1.52;;
64063;SDS011;50314;50.618;10.642;2023-03-07T07:37:44;2.03;;;1.33;;
64063;SDS011;50314;50.618;10.642;2023-03-07T07:40:10;4.70;;;1.58;;
64063;SDS011;50314;50.618;10.642;2023-03-07T07:42:36;2.25;;;1.52;;
64063;SDS011;50314;50.618;10.642;2023-03-07T07:45:02;1.83;;;1.65;;
64063;SDS011;50314;50.618;10.642;2023-03-07T07:47:28;1.65;;;1.40;;
64063;SDS011;50314;50.618;10.642;2023-03-07T07:49:53;1.55;;;1.23;;
64063;SDS011;50314;50.618;10.642;2023-03-07T07:52:19;1.67;;;1.35;;
64063;SDS011;50314;50.618;10.642;2023-03-07T07:54:46;2.75;;;1.45;;
64063;SDS011;50314;50.618;10.642;2023-03-07T07:57:15;2.05;;;1.40;;
64063;SDS011;50314;50.618;10.642;2023-03-07T07:59:40;2.03;;;1.55;;
64063;SDS011;50314;50.618;10.642;2023-03-07T08:02:05;1.90;;;1.38;;
64063;SDS011;50314;50.618;10.642;2023-03-07T08:04:33;1.65;;;1.40;;
64063;SDS011;50314;50.618;10.642;2023-03-07T08:06:59;1.67;;;1.40;;
64063;SDS011;50314;50.618;10.642;2023-03-07T08:09:24;1.50;;;1.40;;
64063;SDS011;50314;50.618;10.642;2023-03-07T08:11:50;1.88;;;1.20;;
64063;SDS011;50314;50.618;10.642;2023-03-07T08:14:15;2.22;;;1.30;;
64063;SDS011;50314;50.618;10.642;2023-03-07T08:16:41;2.42;;;2.10;;
64063;SDS011;50314;50.618;10.642;2023-03-07T08:19:06;1.52;;;1.42;;
64063;SDS011;50314;50.618;10.642;2023-03-07T08:21:32;2.35;;;1.50;;
64063;SDS011;50314;50.618;10.642;2023-03-07T08:23:57;1.55;;;1.33;;
64063;SDS011;50314;50.618;10.642;2023-03-07T08:26:23;2.03;;;1.30;;
64063;SDS011;50314;50.618;10.642;2023-03-07T08:28:48;2.97;;;1.70;;
64063;SDS011;50314;50.618;10.642;2023-03-07T08:31:17;3.63;;;1.48;;
64063;SDS011;50314;50.618;10.642;2023-03-07T08:33:47;2.15;;;1.77;;
64063;SDS011;50314;50.618;10.642;2023-03-07T08:36:13;1.70;;;1.48;;
64063;SDS011;50314;50.618;10.642;2023-03-07T08:38:39;2.28;;;1.42;;
64063;SDS011;50314;50.618;10.642;2023-03-07T08:41:06;3.00;;;1.60;;
64063;SDS011;50314;50.618;10.642;2023-03-07T08:43:33;1.45;;;1.35;;
64063;SDS011;50314;50.618;10.642;2023-03-07T08:46:01;4.03;;;2.05;;
64063;SDS011;50314;50.618;10.642;2023-03-07T08:48:27;2.28;;;1.60;;
64063;SDS011;50314;50.618;10.642;2023-03-07T08:50:53;1.65;;;1.20;;
64063;SDS011;50314;50.618;10.642;2023-03-07T08:53:19;1.83;;;1.52;;
64063;SDS011;50314;50.618;10.642;2023-03-07T08:55:45;1.73;;;1.52;;
64063;SDS011;50314;50.618;10.642;2023-03-07T08:58:11;2.00;;;1.50;;
64063;SDS011;50314;50.618;10.642;2023-03-07T09:00:37;2.47;;;1.85;;
64063;SDS011;50314;50.618;10.642;2023-03-07T09:03:03;1.85;;;1.50;;
64063;SDS011;50314;50.618;10.642;2023-03-07T09:05:29;2.22;;;1.85;;
64063;SDS011;50314;50.618;10.642;2023-03-07T09:07:56;1.80;;;1.40;;
64063;SDS011;50314;50.618;10.642;2023-03-07T09:10:22;1.70;;;1.33;;
64063;SDS011;50314;50.618;10.642;2023-03-07T09:12:48;2.38;;;1.52;;
64063;SDS011;50314;50.618;10.642;2023-03-07T09:15:15;2.05;;;1.60;;
64063;SDS011;50314;50.618;10.642;2023-03-07T09:17:41;2.88;;;1.38;;
64063;SDS011;50314;50.618;10.642;2023-03-07T09:20:07;2.33;;;1.23;;
64063;SDS011;50314;50.618;10.642;2023-03-07T09:22:33;2.03;;;1.50;;
64063;SDS011;50314;50.618;10.642;2023-03-07T09:24:58;2.30;;;1.50;;
64063;SDS011;50314;50.618;10.642;2023-03-07T09:27:24;1.90;;;1.33;;
64063;SDS011;50314;50.618;10.642;2023-03-07T09:29:49;2.58;;;1.55;;
64063;SDS011;50314;50.618;10.642;2023-03-07T09:32:14;1.90;;;1.45;;
64063;SDS011;50314;50.618;10.642;2023-03-07T09:34:40;2.00;;;1.40;;
64063;SDS011;50314;50.618;10.642;2023-03-07T09:37:06;3.13;;;1.33;;
64063;SDS011;50314;50.618;10.642;2023-03-07T09:39:31;1.95;;;1.67;;
64063;SDS011;50314;50.618;10.642;2023-03-07T09:44:39;1.55;;;1.33;;
64063;SDS011;50314;50.618;10.642;2023-03-07T09:49:55;1.55;;;1.15;;
64063;SDS011;50314;50.618;10.642;2023-03-07T09:52:26;2.38;;;1.40;;
64063;SDS011;50314;50.618;10.642;2023-03-07T09:54:59;1.55;;;1.13;;
64063;SDS011;50314;50.618;10.642;2023-03-07T10:05:26;1.90;;;1.70;;
64063;SDS011;50314;50.618;10.642;2023-03-07T10:07:52;1.75;;;1.50;;
64063;SDS011;50314;50.618;10.642;2023-03-07T10:15:51;2.40;;;1.58;;
64063;SDS011;50314;50.618;10.642;2023-03-07T10:21:49;2.65;;;1.40;;
64063;SDS011;50314;50.618;10.642;2023-03-07T10:35:00;1.77;;;1.33;;
64063;SDS011;50314;50.618;10.642;2023-03-07T10:37:50;3.05;;;1.65;;
64063;SDS011;50314;50.618;10.642;2023-03-07T10:42:52;1.60;;;1.40;;
64063;SDS011;50314;50.618;10.642;2023-03-07T10:45:18;2.40;;;1.67;;
64063;SDS011;50314;50.618;10.642;2023-03-07T10:47:44;1.92;;;1.48;;
64063;SDS011;50314;50.618;10.642;2023-03-07T10:50:23;1.95;;;1.50;;
64063;SDS011;50314;50.618;10.642;2023-03-07T10:52:51;1.98;;;1.58;;
64063;SDS011;50314;50.618;10.642;2023-03-07T11:03:31;1.85;;;1.55;;
64063;SDS011;50314;50.618;10.642;2023-03-07T11:06:32;2.47;;;1.70;;
64063;SDS011;50314;50.618;10.642;2023-03-07T11:11:40;3.28;;;1.63;;
64063;SDS011;50314;50.618;10.642;2023-03-07T11:14:15;2.55;;;1.80;;
64063;SDS011;50314;50.618;10.642;2023-03-07T11:19:32;4.75;;;1.58;;
64063;SDS011;50314;50.618;10.642;2023-03-07T11:22:17;2.28;;;1.60;;
64063;SDS011;50314;50.618;10.642;2023-03-07T11:24:46;3.00;;;1.55;;
64063;SDS011;50314;50.618;10.642;2023-03-07T11:27:29;2.97;;;1.73;;
64063;SDS011;50314;50.618;10.642;2023-03-07T11:30:04;2.28;;;1.48;;
64063;SDS011;50314;50.618;10.642;2023-03-07T11:32:51;2.35;;;1.38;;
64063;SDS011;50314;50.618;10.642;2023-03-07T11:35:33;2.72;;;1.55;;
64063;SDS011;50314;50.618;10.642;2023-03-07T11:38:06;2.95;;;2.00;;
64063;SDS011;50314;50.618;10.642;2023-03-07T11:43:39;2.60;;;1.45;;
64063;SDS011;50314;50.618;10.642;2023-03-07T11:49:07;3.15;;;1.65;;
64063;SDS011;50314;50.618;10.642;2023-03-07T12:13:47;1.70;;;1.50;;
64063;SDS011;50314;50.618;10.642;2023-03-07T12:19:07;2.53;;;1.70;;
64063;SDS011;50314;50.618;10.642;2023-03-07T12:27:26;3.10;;;1.50;;
64063;SDS011;50314;50.618;10.642;2023-03-07T12:29:53;4.03;;;1.48;;
64063;SDS011;50314;50.618;10.642;2023-03-07T12:32:24;3.03;;;1.33;;
64063;SDS011;50314;50.618;10.642;2023-03-07T12:34:58;2.50;;;1.35;;
64063;SDS011;50314;50.618;10.642;2023-03-07T12:37:41;1.90;;;1.38;;
64063;SDS011;50314;50.618;10.642;2023-03-07T12:40:22;1.83;;;1.23;;
64063;SDS011;50314;50.618;10.642;2023-03-07T12:42:55;2.92;;;1.55;;
64063;SDS011;50314;50.618;10.642;2023-03-07T12:45:22;1.70;;;1.20;;
64063;SDS011;50314;50.618;10.642;2023-03-07T12:47:54;1.67;;;1.20;;
64063;SDS011;50314;50.618;10.642;2023-03-07T12:50:29;2.35;;;1.52;;
64063;SDS011;50314;50.618;10.642;2023-03-07T12:55:44;1.77;;;1.30;;
64063;SDS011;50314;50.618;10.642;2023-03-07T12:58:20;2.10;;;1.33;;
64063;SDS011;50314;50.618;10.642;2023-03-07T13:01:08;1.38;;;1.00;;
64063;SDS011;50314;50.618;10.642;2023-03-07T13:06:20;1.83;;;1.30;;
64063;SDS011;50314;50.618;10.642;2023-03-07T13:08:47;1.30;;;1.20;;
64063;SDS011;50314;50.618;10.642;2023-03-07T13:11:22;1.88;;;1.10;;
64063;SDS011;50314;50.618;10.642;2023-03-07T13:13:51;3.70;;;1.90;;
64063;SDS011;50314;50.618;10.642;2023-03-07T13:16:30;1.73;;;1.30;;
64063;SDS011;50314;50.618;10.642;2023-03-07T13:21:55;1.60;;;1.20;;
64063;SDS011;50314;50.618;10.642;2023-03-07T13:26:59;2.47;;;1.85;;
64063;SDS011;50314;50.618;10.642;2023-03-07T13:43:02;2.30;;;1.70;;
64063;SDS011;50314;50.618;10.642;2023-03-07T13:48:10;2.30;;;1.95;;
64063;SDS011;50314;50.618;10.642;2023-03-07T13:53:03;2.00;;;1.50;;
64063;SDS011;50314;50.618;10.642;2023-03-07T13:55:38;1.77;;;1.35;;
64063;SDS011;50314;50.618;10.642;2023-03-07T13:58:17;1.45;;;1.30;;
64063;SDS011;50314;50.618;10.642;2023-03-07T14:01:35;1.75;;;1.30;;
64063;SDS011;50314;50.618;10.642;2023-03-07T14:06:54;1.73;;;1.33;;
64063;SDS011;50314;50.618;10.642;2023-03-07T14:09:26;1.40;;;1.30;;
64063;SDS011;50314;50.618;10.642;2023-03-07T14:12:04;1.73;;;1.35;;
64063;SDS011;50314;50.618;10.642;2023-03-07T14:20:43;1.65;;;1.23;;
64063;SDS011;50314;50.618;10.642;2023-03-07T14:25:51;1.58;;;1.10;;
64063;SDS011;50314;50.618;10.642;2023-03-07T14:28:31;2.55;;;1.35;;
64063;SDS011;50314;50.618;10.642;2023-03-07T14:31:01;1.80;;;1.30;;
64063;SDS011;50314;50.618;10.642;2023-03-07T14:33:34;1.33;;;1.10;;
64063;SDS011;50314;50.618;10.642;2023-03-07T14:38:59;1.77;;;1.10;;
64063;SDS011;50314;50.618;10.642;2023-03-07T14:44:37;1.65;;;1.30;;
64063;SDS011;50314;50.618;10.642;2023-03-07T14:49:59;2.30;;;1.27;;
64063;SDS011;50314;50.618;10.642;2023-03-07T14:52:29;1.85;;;1.20;;
64063;SDS011;50314;50.618;10.642;2023-03-07T14:54:55;1.30;;;0.90;;
64063;SDS011;50314;50.618;10.642;2023-03-07T14:57:31;1.20;;;1.10;;
64063;SDS011;50314;50.618;10.642;2023-03-07T15:02:54;1.75;;;1.08;;
64063;SDS011;50314;50.618;10.642;2023-03-07T15:05:36;2.55;;;1.38;;
64063;SDS011;50314;50.618;10.642;2023-03-07T15:10:59;1.77;;;1.30;;
64063;SDS011;50314;50.618;10.642;2023-03-07T15:15:59;1.55;;;1.17;;
64063;SDS011;50314;50.618;10.642;2023-03-07T15:21:01;1.48;;;1.33;;
64063;SDS011;50314;50.618;10.642;2023-03-07T15:23:29;2.30;;;1.40;;
64063;SDS011;50314;50.618;10.642;2023-03-07T15:26:02;1.45;;;1.33;;
64063;SDS011;50314;50.618;10.642;2023-03-07T15:28:33;1.50;;;1.20;;
64063;SDS011;50314;50.618;10.642;2023-03-07T15:31:01;1.65;;;1.20;;
64063;SDS011;50314;50.618;10.642;2023-03-07T15:33:30;1.40;;;1.30;;
64063;SDS011;50314;50.618;10.642;2023-03-07T15:39:12;1.45;;;1.20;;
64063;SDS011;50314;50.618;10.642;2023-03-07T15:42:02;1.80;;;1.17;;
64063;SDS011;50314;50.618;10.642;2023-03-07T15:44:29;1.55;;;1.10;;
64063;SDS011;50314;50.618;10.642;2023-03-07T15:46:57;1.17;;;0.98;;
64063;SDS011;50314;50.618;10.642;2023-03-07T15:49:29;1.20;;;1.10;;
64063;SDS011;50314;50.618;10.642;2023-03-07T15:52:01;1.17;;;1.08;;
64063;SDS011;50314;50.618;10.642;2023-03-07T15:54:29;1.77;;;1.10;;
64063;SDS011;50314;50.618;10.642;2023-03-07T15:57:00;1.20;;;1.10;;
64063;SDS011;50314;50.618;10.642;2023-03-07T15:59:39;1.20;;;1.10;;
64063;SDS011;50314;50.618;10.642;2023-03-07T16:07:45;1.50;;;1.02;;
64063;SDS011;50314;50.618;10.642;2023-03-07T16:10:11;1.40;;;1.00;;
64063;SDS011;50314;50.618;10.642;2023-03-07T16:12:37;1.15;;;1.05;;
64063;SDS011;50314;50.618;10.642;2023-03-07T16:15:12;1.67;;;1.35;;
64063;SDS011;50314;50.618;10.642;2023-03-07T16:17:39;1.80;;;1.13;;
64063;SDS011;50314;50.618;10.642;2023-03-07T16:20:15;1.33;;;1.20;;
64063;SDS011;50314;50.618;10.642;2023-03-07T16:22:43;1.52;;;1.40;;
64063;SDS011;50314;50.618;10.642;2023-03-07T16:25:08;1.10;;;1.00;;
64063;SDS011;50314;50.618;10.642;2023-03-07T16:27:37;4.15;;;1.42;;
64063;SDS011;50314;50.618;10.642;2023-03-07T16:30:14;1.25;;;1.00;;
64063;SDS011;50314;50.618;10.642;2023-03-07T16:32:41;2.00;;;1.30;;
64063;SDS011;50314;50.618;10.642;2023-03-07T16:35:17;1.45;;;1.10;;
64063;SDS011;50314;50.618;10.642;2023-03-07T16:37:43;1.70;;;1.20;;
64063;SDS011;50314;50.618;10.642;2023-03-07T16:40:09;1.92;;;1.38;;
64063;SDS011;50314;50.618;10.642;2023-03-07T16:42:35;1.85;;;1.50;;
64063;SDS011;50314;50.618;10.642;2023-03-07T16:45:03;3.47;;;1.30;;
64063;SDS011;50314;50.618;10.642;2023-03-07T16:47:35;1.98;;;1.50;;
64063;SDS011;50314;50.618;10.642;2023-03-07T16:50:00;2.40;;;1.30;;
64063;SDS011;50314;50.618;10.642;2023-03-07T16:52:26;1.30;;;1.20;;
64063;SDS011;50314;50.618;10.642;2023-03-07T16:54:51;1.80;;;1.23;;
64063;SDS011;50314;50.618;10.642;2023-03-07T16:57:17;2.05;;;1.40;;
64063;SDS011;50314;50.618;10.642;2023-03-07T16:59:43;1.83;;;1.60;;
64063;SDS011;50314;50.618;10.642;2023-03-07T17:02:15;2.20;;;1.50;;
64063;SDS011;50314;50.618;10.642;2023-03-07T17:04:42;2.55;;;1.52;;
64063;SDS011;50314;50.618;10.642;2023-03-07T17:07:18;2.28;;;1.83;;
64063;SDS011;50314;50.618;10.642;2023-03-07T17:09:46;1.80;;;1.50;;
64063;SDS011;50314;50.618;10.642;2023-03-07T17:12:11;1.63;;;1.30;;
64063;SDS011;50314;50.618;10.642;2023-03-07T17:14:37;2.95;;;1.45;;
64063;SDS011;50314;50.618;10.642;2023-03-07T17:17:03;2.13;;;1.55;;
64063;SDS011;50314;50.618;10.642;2023-03-07T17:19:30;2.30;;;1.40;;
64063;SDS011;50314;50.618;10.642;2023-03-07T17:21:57;1.02;;;1.02;;
64063;SDS011;50314;50.618;10.642;2023-03-07T17:26:49;1.35;;;1.20;;
64063;SDS011;50314;50.618;10.642;2023-03-07T17:29:24;1.98;;;1.67;;
64063;SDS011;50314;50.618;10.642;2023-03-07T17:32:12;1.70;;;1.27;;